Tiempo atmosférico en la estación meteorológica de Gran Canaria Aeropuerto, Las Palmas (24 m.)



Fecha
DESCASC
Temp. máxima en grados centígrados (hora)
DESCASC
Temp. mínima en grados centígrados (hora)
DESCASC
Temp. media en grados centígrados
DESCASC
Racha de viento máxima en m/sg (hora)
DESCASC
Velocidad máxima media en intervalos de 10 minutos(hora)
DESCASC
Precipitaciones diarias en mm
DESCASC
Precipitaciones de 00:00 a 06:00 en mm
DESCASC
Precipitaciones de 06:00 a 12:00 en mm
DESCASC
Precipitaciones de 12:00 a 18:00 en mm
DESCASC
Precipitaciones de 18:00 a 24:00 en mm
DESCASC
07-01-2021 24.5 (14:30) 18.7 (00:00) 21.6 -- (--) -- (--) 20.5 0 1.2 16.1 3.2
08-01-2021 21.1 (13:10) 14.3 (00:00) 17.7 16.94 (00:10) 12.22 (11:30) 4.5 0.8 0 3.7 0
30-12-2020 21.1 (13:00) 15.7 (00:00) 18.4 10.28 (13:30) 8.61 (13:30) 0.6 0 0 0.2 0.4
09-01-2021 18.5 (13:00) 13.5 (00:00) 16 18.89 (14:40) 12.78 (14:40) 0.2 0 0.1 0.1 0
06-01-2021 24.4 (16:50) 19.1 (00:00) 21.8 17.5 (08:40) 12.5 (09:00) 1.5 0 1.4 0.1 0
12-01-2021 18.7 (15:30) 13.1 (00:00) 15.9 12.78 (12:30) 10 (12:40) 1.4 1.2 0.1 0.1 0
14-01-2021 20.1 (13:00) 14.7 (06:10) 17.4 12.5 (23:59) 9.72 (22:00) 0 0 0 0 0
10-01-2021 20.2 (13:40) 13.6 (01:50) 16.9 16.11 (14:00) 10.83 (14:00) 0.7 0 0 0 0.7
11-01-2021 18.6 (13:40) 13.5 (00:00) 16.1 14.44 (13:50) 10.83 (13:50) 1.1 0.3 0 0 0.8
13-01-2021 19.8 (14:20) 14.8 (00:00) 17.3 12.78 (12:50) 9.44 (12:40) 0.4 0.4 0 0 0
21-01-2021 21.9 (14:20) 15.7 (00:00) 18.8 13.33 (15:40) 10.28 (15:40) 0 0 0 0 0
15-01-2021 19.9 (13:30) 16 (00:00) 17.9 15 (01:30) 11.94 (01:30) 0 0 0 0 0
16-01-2021 20.6 (12:00) 15.5 (00:00) 18.1 13.33 (03:30) 10.83 (03:30) 0 0 0 0 0
17-01-2021 19.9 (12:50) 15.5 (00:00) 17.7 11.39 (00:40) 8.89 (00:50) 0 0 0 0 0
18-01-2021 19.8 (14:20) 14.9 (00:00) 17.3 7.22 (13:10) 5 (05:20) 0 0 0 0 0
19-01-2021 -- (--) -- (--) -- -- (--) -- (--) -- 0 0 0 --
20-01-2021 20 (13:10) 12.4 (00:00) 16.2 9.72 (23:50) 6.94 (23:59) -- 0 -- 0 0
23-12-2020 22.1 (13:00) 16.1 (00:00) 19.1 9.17 (11:30) 6.67 (11:30) 0 0 0 0 0
05-01-2021 24.5 (14:40) 15.8 (00:00) 20.2 15 (00:10) 11.11 (01:40) 0 0 0 0 0
04-01-2021 19.5 (13:10) 16.1 (00:00) 17.8 16.11 (13:50) 12.5 (14:40) 0 0 0 0 0
03-01-2021 19.3 (12:40) 15.9 (00:00) 17.6 6.67 (00:40) 4.72 (00:20) 0 0 0 0 0
02-01-2021 19.7 (15:40) 15 (00:00) 17.4 9.17 (00:30) 7.5 (16:50) 0 0 0 0 0
01-01-2021 20.3 (14:10) 15 (00:00) 17.6 13.33 (09:40) 10.56 (11:50) 0.1 0 0 0 0.1
31-12-2020 20.4 (13:40) 15.4 (00:00) 17.9 11.67 (13:30) 9.17 (14:10) 0 0 0 0 0
29-12-2020 21.1 (12:50) 16.7 (00:00) 18.9 9.17 (14:50) 7.22 (18:00) 0 0 0 0 0
28-12-2020 24 (13:30) 15.2 (00:00) 19.6 8.89 (16:00) 6.94 (16:30) 0 0 0 0 0
27-12-2020 21.7 (12:20) 15.6 (00:00) 18.7 5.83 (07:30) 3.61 (07:10) 0 0 0 0 0
26-12-2020 22.7 (13:10) 16.6 (00:00) 19.7 9.17 (14:50) 7.5 (14:50) 0 0 0 0 0
25-12-2020 22.6 (12:30) 16.3 (00:00) 19.4 9.17 (15:20) 7.78 (17:00) 0 0 0 0 0
24-12-2020 21.8 (11:40) 16.9 (00:00) 19.3 11.67 (07:40) 8.61 (08:50) 0 0 0 0 0

Gráficas

Temp. máximas Temp. mínimas Temp. medias Precipitaciones Rachas de viento máximas Velocidades máximas media en intervalos de 10 minutos

Datos horarios

Fecha y hora oficial Temperatura (ºC) Velocidad del viento (km/h) Dirección del viento Racha (km/h) Dirección de racha Precipitación (mm) Presión (hPa) Tendencia (hPa) Humedad (%)
2021-01-21 23:00:00 19.1 24 Nordeste 41 Norte 0 1021.3 -- 81
2021-01-21 22:00:00 18.8 23 Norte 33 Norte 0 1020.5 -- 80
2021-01-21 21:00:00 18.7 27 Norte 33 Norte 0 1020.5 -- 78
2021-01-21 20:00:00 19.1 19 Norte 28 Norte 0 1020.1 -- 68
2021-01-21 19:00:00 19.5 23 Norte 37 Norte 0 1019.1 -- 67
2021-01-21 18:00:00 20.1 32 Nordeste 41 Nordeste 0 1019 -- 71
2021-01-21 17:00:00 20.7 33 Nordeste 42 Nordeste 0 1019 -- 73
2021-01-21 16:00:00 21.3 37 Nordeste 48 Nordeste 0 1018.4 -- 69
2021-01-21 15:00:00 21.3 33 Nordeste 41 Nordeste 0 1018.7 -- 69
2021-01-21 14:00:00 21.5 30 Nordeste 37 Nordeste 0 1019.4 -- 66
2021-01-21 13:00:00 21.3 26 Nordeste 35 Nordeste 0 1020.3 -- 66
2021-01-21 12:00:00 20.9 25 Nordeste 33 Norte 0 1020.7 -- 68
2021-01-21 11:00:00 18.9 24 Norte 32 Nordeste 0 1020.9 -- 80
2021-01-21 10:00:00 18.6 21 Este 28 Este 0 1020.4 -- 77
2021-01-21 09:00:00 18.1 21 Este 28 Este 0 1019.7 -- 77
2021-01-21 08:00:00 17.8 17 Este 24 Este 0 1019.3 -- 77
2021-01-21 07:00:00 17.6 15 Este 22 Este 0 1019 -- 77
2021-01-21 06:00:00 17.5 14 Este 21 Este 0 1018.7 -- 78
2021-01-21 05:00:00 17.5 14 Este 21 Este 0 1018.7 -- 77
2021-01-21 04:00:00 17.4 14 Este 26 Este 0 1019 -- 76
2021-01-21 03:00:00 16.6 13 Este 22 Este 0 1018.5 -- 78
2021-01-21 02:00:00 16.9 15 Norte 22 Norte 0 1018.4 -- 76
2021-01-21 01:00:00 16.1 15 Norte 32 Norte 0 1018.6 -- 77
2021-01-21 00:00:00 16.6 25 Norte 35 Norte 0 1018.4 -- 74
2021-01-20 23:00:00 16.3 22 Este 28 Este 0 1018.5 -- 76
2021-01-20 22:00:00 16.5 11 Este 18 Nordeste 0 1018.9 -- 74
2021-01-20 21:00:00 17.5 9 Este 18 Norte 0 1018.8 -- 71
2021-01-20 20:00:00 18 15 Nordeste 28 Norte 0 1018.1 -- 73
2021-01-20 19:00:00 17.9 7 Este 11 Sudeste 0 1017.5 -- 74
2021-01-20 18:00:00 18.3 8 Sudeste 13 Sudeste 0 1017.4 -- 73
2021-01-20 17:00:00 18.9 8 Este 13 Este 0 1017.3 -- 68
2021-01-20 16:00:00 19.1 10 Sudeste 15 Este 0 1017.3 -- 67
2021-01-20 15:00:00 19.8 10 Este 17 Este 0 1017.5 -- 63
2021-01-20 14:00:00 19.6 10 Este 21 Este 0 1017.8 -- 63
2021-01-20 13:00:00 19.9 13 Sudeste 18 Sudeste 0 1018.3 -- 63
2021-01-20 12:00:00 19.5 10 Sudeste 15 Sudeste 0 1019 -- 63
2021-01-20 11:00:00 19 8 Este 13 Este 0 1019.4 -- 63
2021-01-20 10:00:00 18.5 7 Norte 15 Nordeste -- 1019.1 -- 62
2021-01-20 09:00:00 15.7 0 Calma 5 Nordeste -- 1018.5 -- 68
2021-01-20 08:00:00 13.7 3 Norte 13 Nordeste 0 1018.4 -- 71
2021-01-20 07:00:00 12.5 9 Nordeste 11 Nordeste 0 1018.2 -- 78
2021-01-20 06:00:00 13 12 Nordeste 15 Nordeste 0 1017.9 -- 79
2021-01-20 05:00:00 12.8 10 Nordeste 13 Nordeste 0 1017.6 -- 82
2021-01-20 04:00:00 13.4 10 Oeste -- -- 0 1017.7 -- 78
2021-01-20 03:00:00 13.4 11 Nordeste 15 Nordeste 0 1018 -- 82
2021-01-20 02:00:00 13.4 8 Norte 13 Norte 0 1018.2 -- 81
2021-01-20 01:00:00 13.5 9 Norte 13 Nordeste 0 1018.4 -- 81
2021-01-20 00:00:00 13.8 9 Norte 13 Nordeste 0 1018.7 -- 82
2021-01-19 23:00:00 14.5 9 Nordeste 13 Norte 0 1019 -- 82
2021-01-19 22:00:00 15.1 10 Norte -- -- -- 1019.1 -- 80
2021-01-19 21:00:00 -- -- -- -- -- -- -- -- --
2021-01-19 20:00:00 -- -- -- -- -- -- -- -- --
2021-01-19 19:00:00 -- -- -- -- -- -- -- -- --
2021-01-19 18:00:00 17.7 5 Este 17 Nordeste 0 1018.6 -- 73
2021-01-19 17:00:00 18 8 Este 15 Sudeste 0 1018.3 -- 70
2021-01-19 16:00:00 18.5 10 Este 17 Este 0 1017.8 -- 68
2021-01-19 15:00:00 19.1 11 Sudeste 21 Sudeste 0 1018.7 -- 64
2021-01-19 14:00:00 19.4 13 Sudeste 21 Sudeste 0 1018.8 -- 64
2021-01-19 13:00:00 19.5 13 Sudeste 21 Sudeste 0 1019.9 -- 63
2021-01-19 12:00:00 19 14 Sudeste 21 Sudeste 0 1020.7 -- 63
2021-01-19 11:00:00 18.8 8 Sudeste 15 Este 0 1021.2 -- 64
2021-01-19 10:00:00 17.9 5 Este 17 Nordeste 0 1021 -- 67
2021-01-19 09:00:00 15.4 9 Nordeste 22 Nordeste 0 1020.7 -- 75
2021-01-19 08:00:00 14.3 13 Nordeste 18 Nordeste 0 1020.1 -- 79
2021-01-19 07:00:00 14.2 12 Nordeste 17 Nordeste 0 1020.1 -- 79
2021-01-19 06:00:00 14.9 13 Este 22 Nordeste 0 1019.2 -- 77
2021-01-19 05:00:00 15 15 Nordeste 50 Nordeste 0 1019.3 -- 76
2021-01-19 04:00:00 15 14 Nordeste 18 Nordeste 0 1019.8 -- 74
2021-01-19 03:00:00 14.9 13 Nordeste 22 Nordeste 0 1020.2 -- 75
2021-01-19 02:00:00 15.3 17 Este 22 Nordeste 0 1020.6 -- 75
2021-01-19 01:00:00 15.3 16 Este 26 Este 0 1020.9 -- 76
2021-01-19 00:00:00 15.2 17 Este 22 Este 0 1021.2 -- 78
2021-01-18 23:00:00 15.4 13 Este 18 Este 0 1021.5 -- 79
2021-01-18 22:00:00 15.5 14 Este 21 Nordeste 0 1021.4 -- 79
2021-01-18 21:00:00 16.1 13 Este 18 Este 0 1021.1 -- 77
2021-01-18 20:00:00 16.7 10 Nordeste 13 Nordeste 0 1021 -- 75
2021-01-18 19:00:00 17.3 7 Nordeste 15 Nordeste 0 1020.5 -- 75
2021-01-18 18:00:00 17.9 9 Nordeste 13 Nordeste 0 1019.9 -- 71
2021-01-18 17:00:00 18.5 10 Este 17 Este 0 1019.6 -- 67
2021-01-18 16:00:00 19 11 Este 17 Este 0 1019.5 -- 63
2021-01-18 15:00:00 19.4 12 Este 22 Nordeste 0 1019.3 -- 63
2021-01-18 14:00:00 19.4 15 Nordeste 26 Nordeste 0 1019.7 -- 62
2021-01-18 13:00:00 19.3 15 Nordeste 24 Nordeste 0 1020.6 -- 64
2021-01-18 12:00:00 19.3 15 Nordeste 24 Nordeste 0 1021.3 -- 61
2021-01-18 11:00:00 18.9 15 Nordeste 22 Nordeste 0 1021.6 -- 62
2021-01-18 10:00:00 18.1 12 Norte 18 Norte 0 1021.3 -- 65
2021-01-18 09:00:00 16.2 13 Este 22 Este 0 1021 -- 72
2021-01-18 08:00:00 15.1 14 Este 22 Este 0 1020.4 -- 76
2021-01-18 07:00:00 15 16 Este 22 Este 0 1020 -- 76
2021-01-18 06:00:00 14.9 16 Este 24 Este 0 1019.5 -- 76
2021-01-18 05:00:00 15.1 16 Este 22 Este 0 1019.4 -- 76
2021-01-18 04:00:00 15.2 16 Este 22 Este 0 1019.4 -- 76
2021-01-18 03:00:00 15.1 16 Este 22 Nordeste 0 1019.6 -- 75
2021-01-18 02:00:00 15.3 17 Nordeste 22 Nordeste 0 1019.8 -- 74
2021-01-18 01:00:00 15.3 13 Este 22 Este 0 1020.1 -- 74
2021-01-18 00:00:00 15.5 15 Este 24 Este 0 1020.5 -- 72
2021-01-17 23:00:00 15.9 15 Este 26 Nordeste 0 1020.6 -- 71
2021-01-17 22:00:00 16.1 18 Este 30 Este 0 1020.8 -- 69
2021-01-17 21:00:00 16 19 Este 26 Este 0 1020.4 -- 69
2021-01-17 20:00:00 16.1 17 Este 28 Este 0 1020.2 -- 70
2021-01-17 19:00:00 17.2 22 Norte 33 Nordeste 0 1020 -- 66
2021-01-17 18:00:00 18 23 Nordeste 30 Nordeste 0 1019.9 -- 62
2021-01-17 17:00:00 18.7 18 Nordeste 26 Norte 0 1019.5 -- 61
2021-01-17 16:00:00 19 18 Nordeste 26 Nordeste 0 1019.5 -- 59
2021-01-17 15:00:00 19.2 18 Nordeste 28 Este 0 1019.5 -- 58
2021-01-17 14:00:00 19.5 19 Este 28 Este 0 1020 -- 57
2021-01-17 13:00:00 19.6 20 Este 30 Este 0 1020.7 -- 58
2021-01-17 12:00:00 19.3 18 Nordeste 32 Nordeste 0 1021.7 -- 61
2021-01-17 11:00:00 18.8 22 Norte 30 Nordeste 0 1022 -- 59
2021-01-17 10:00:00 18.6 24 Norte 30 Nordeste 0 1021.8 -- 56
2021-01-17 09:00:00 16.6 18 Norte 30 Norte 0 1021.2 -- 63
2021-01-17 08:00:00 15.9 21 Este 28 Este 0 1020.4 -- 63
2021-01-17 07:00:00 16 20 Norte 37 Nordeste 0 1019.9 -- 64
2021-01-17 06:00:00 16.4 22 Norte 30 Norte 0 1019.5 -- 62
2021-01-17 05:00:00 16.5 21 Nordeste 30 Este 0 1019.2 -- 62
2021-01-17 04:00:00 16.7 22 Norte 32 Este 0 1019.4 -- 60
2021-01-17 03:00:00 16.8 28 Norte 41 Nordeste 0 1019.6 -- 61
2021-01-17 02:00:00 16.8 31 Nordeste 39 Nordeste 0 1019.7 -- 61
2021-01-17 01:00:00 17 31 Nordeste 41 Nordeste 0 1020 -- 59
2021-01-17 00:00:00 17 26 Norte 37 Norte 0 1020.5 -- 62
2021-01-16 23:00:00 17.4 30 Nordeste 39 Nordeste 0 1020.6 -- 60
2021-01-16 22:00:00 17.6 31 Nordeste 41 Nordeste 0 1020.4 -- 60
2021-01-16 21:00:00 17.3 22 Norte 41 Nordeste 0 1020.2 -- 59
2021-01-16 20:00:00 17.7 34 Nordeste 42 Nordeste 0 1019.6 -- 62
2021-01-16 19:00:00 18.1 25 Nordeste 35 Nordeste 0 1019.3 -- 68
2021-01-16 18:00:00 18.8 30 Nordeste 39 Norte 0 1019.5 -- 67
2021-01-16 17:00:00 19.1 30 Norte 37 Norte 0 1018.9 -- 63
2021-01-16 16:00:00 19.6 30 Norte 37 Norte 0 1018.8 -- 61
2021-01-16 15:00:00 20.2 31 Nordeste 42 Norte 0 1018.9 -- 59
2021-01-16 14:00:00 20 28 Nordeste 42 Nordeste 0 1019.5 -- 57
2021-01-16 13:00:00 20.2 32 Nordeste 45 Nordeste 0 1020.3 -- 50
2021-01-16 12:00:00 20.4 32 Nordeste 46 Nordeste 0 1021.2 -- 55
2021-01-16 11:00:00 19 30 Norte 45 Norte 0 1021.4 -- 53
2021-01-16 10:00:00 18.6 37 Nordeste 46 Nordeste 0 1021.2 -- 53
2021-01-16 09:00:00 16.7 26 Este 45 Nordeste 0 1020.3 -- 59
2021-01-16 08:00:00 16.8 27 Norte 42 Nordeste 0 1020.1 -- 59
2021-01-16 07:00:00 16.4 30 Norte 41 Norte 0 1019.9 -- 62
2021-01-16 06:00:00 16.2 23 Norte 45 Norte 0 1019.5 -- 58
2021-01-16 05:00:00 16 26 Norte 42 Nordeste 0 1019.6 -- 60
2021-01-16 04:00:00 16.1 24 Norte 48 Norte 0 1020 -- 56
2021-01-16 03:00:00 16.7 36 Norte 46 Nordeste 0 1020.3 -- 60
2021-01-16 02:00:00 16.7 28 Norte 39 Norte 0 1020.5 -- 60
2021-01-16 01:00:00 16.5 24 Norte 41 Norte 0 1020.8 -- 58
2021-01-16 00:00:00 16.6 23 Este 45 Norte 0 1020.8 -- 58
2021-01-15 23:00:00 16.9 37 Nordeste 50 Nordeste 0 1021.4 -- 57
2021-01-15 22:00:00 16.7 27 Nordeste 41 Norte 0 1020.8 -- 59
2021-01-15 21:00:00 16.8 26 Este 48 Nordeste 0 1020.9 -- 55
2021-01-15 20:00:00 17.1 32 Norte 42 Norte 0 1020.9 -- 54
2021-01-15 19:00:00 17.4 33 Norte 52 Norte 0 1020.5 -- 54
2021-01-15 18:00:00 17.8 35 Norte 46 Norte 0 1020.1 -- 61
2021-01-15 17:00:00 18.5 33 Norte 48 Nordeste 0 1020.2 -- 54
2021-01-15 16:00:00 18.8 37 Nordeste 48 Norte 0 1019.8 -- 56
2021-01-15 15:00:00 18 27 Norte 42 Nordeste 0 1020.3 -- 61
2021-01-15 14:00:00 19.2 37 Norte 45 Nordeste 0 1020.9 -- 53
2021-01-15 13:00:00 18 31 Norte 45 Norte 0 1021.8 -- 55
2021-01-15 12:00:00 17.8 29 Nordeste 45 Norte 0 1022.8 -- 61
2021-01-15 11:00:00 17.3 25 Norte 54 Norte 0 1023.2 -- 60
2021-01-15 10:00:00 17 25 Norte 42 Norte 0 1022.4 -- 57
2021-01-15 09:00:00 16.9 34 Nordeste 42 Nordeste 0 1022 -- 59
2021-01-15 08:00:00 16.7 26 Norte 54 Nordeste 0 1021.4 -- 54
2021-01-15 07:00:00 16.7 38 Nordeste 54 Nordeste 0 1020.8 -- 59
2021-01-15 06:00:00 16.2 24 Norte 33 Norte 0 1020.9 -- 57
2021-01-15 05:00:00 16.4 24 Norte 50 Nordeste 0 1021.2 -- 54
2021-01-15 04:00:00 16.5 36 Nordeste 46 Nordeste 0 1021.3 -- 60
2021-01-15 03:00:00 17.1 28 Norte 50 Nordeste 0 1021.2 -- 49
2021-01-15 02:00:00 17 37 Norte 54 Nordeste 0 1021.7 -- 55
2021-01-15 01:00:00 16.9 39 Nordeste 50 Nordeste 0 1021.9 -- 60
2021-01-15 00:00:00 16.6 34 Nordeste 45 Nordeste 0 1022.1 -- 68
2021-01-14 23:00:00 16.3 24 Norte 42 Nordeste 0 1022.5 -- 62
2021-01-14 22:00:00 16.6 35 Nordeste 42 Nordeste 0 1022.4 -- 61
2021-01-14 21:00:00 16.9 28 Nordeste 41 Nordeste 0 1022 -- 56
2021-01-14 20:00:00 17 30 Nordeste 41 Nordeste 0 1022 -- 61
2021-01-14 19:00:00 17.1 27 Nordeste 35 Nordeste 0 1022.1 -- 61
2021-01-14 18:00:00 17.7 28 Nordeste 39 Nordeste 0 1021.9 -- 59
2021-01-14 17:00:00 18.1 26 Nordeste 33 Nordeste 0 1021.7 -- 58
2021-01-14 16:00:00 18.4 26 Nordeste 35 Nordeste 0 1021.6 -- 57
2021-01-14 15:00:00 18.3 20 Nordeste 30 Nordeste 0 1021.8 -- 59
2021-01-14 14:00:00 18.3 24 Nordeste 32 Nordeste 0 1022.2 -- 58
2021-01-14 13:00:00 19.8 20 Nordeste 33 Nordeste 0 1023.2 -- 52
2021-01-14 12:00:00 19.3 23 Este 32 Este 0 1024 -- 58
2021-01-14 11:00:00 19.2 22 Este 33 Este 0 1024.4 -- 60
2021-01-14 10:00:00 17.8 21 Nordeste 33 Nordeste 0 1024 -- 64
2021-01-14 09:00:00 16.8 21 Nordeste 28 Nordeste 0 1023.4 -- 67
2021-01-14 08:00:00 15 15 Nordeste 21 Nordeste 0 1023 -- 72
2021-01-14 07:00:00 14.9 12 Este 21 Este 0 1022.7 -- 71
2021-01-14 06:00:00 14.8 12 Este 18 Este 0 1022.3 -- 71
2021-01-14 05:00:00 15 14 Este 21 Este 0 1022.2 -- 73
2021-01-14 04:00:00 15.2 13 Este 21 Este 0 1022.2 -- 74
2021-01-14 03:00:00 15 13 Este 22 Nordeste 0 1022.5 -- 73
2021-01-14 02:00:00 15.8 19 Nordeste 28 Nordeste 0 1022.5 -- 74
2021-01-14 01:00:00 16.2 15 Este 28 Este 0 1022.9 -- 73
2021-01-14 00:00:00 16.4 21 Este 28 Este 0 1023.2 -- 72
2021-01-13 23:00:00 16.1 13 Este 30 Nordeste 0 1023.4 -- 73
2021-01-13 22:00:00 17 22 Norte 33 Nordeste 0 1023 -- 68
2021-01-13 21:00:00 17.2 26 Nordeste 32 Nordeste 0 1022.6 -- 66
2021-01-13 20:00:00 16.6 17 Este 28 Norte 0 1022.4 -- 65
2021-01-13 19:00:00 17.1 22 Norte 33 Norte 0 1022.1 -- 62
2021-01-13 18:00:00 17.8 26 Norte 37 Nordeste 0 1021.5 -- 57
2021-01-13 17:00:00 18.3 26 Norte 33 Norte 0 1021.5 -- 58
2021-01-13 16:00:00 18.8 28 Norte 39 Norte 0 1021.3 -- 57
2021-01-13 15:00:00 19 29 Norte 39 Norte 0 1021 -- 57
2021-01-13 14:00:00 19.3 33 Norte 41 Norte 0 1021.3 -- 56
2021-01-13 13:00:00 18.8 32 Nordeste 46 Nordeste 0 1021.7 -- 58
2021-01-13 12:00:00 19.1 30 Nordeste 41 Nordeste 0 1022.6 -- 60
2021-01-13 11:00:00 18.5 31 Nordeste 41 Nordeste 0 1023.2 -- 63
2021-01-13 10:00:00 17.3 30 Nordeste 42 Nordeste 0 1022.6 -- 68
2021-01-13 09:00:00 16.6 29 Nordeste 42 Nordeste 0 1021.8 -- 73
2021-01-13 08:00:00 16.4 31 Nordeste 41 Nordeste 0 1021.3 -- 71
2021-01-13 07:00:00 16.4 30 Nordeste 39 Nordeste 0 1020.7 -- 73
2021-01-13 06:00:00 15.8 27 Nordeste 35 Nordeste 0 1020.4 -- 77
2021-01-13 05:00:00 15.3 19 Norte 28 Norte 0.4 1020.4 -- 79
2021-01-13 04:00:00 14.8 13 Este 30 Norte 0 1020.5 -- 80
2021-01-13 03:00:00 15.8 21 Nordeste 37 Nordeste 0 1020.5 -- 76
2021-01-13 02:00:00 16.2 28 Nordeste 41 Nordeste 0 1020.5 -- 74
2021-01-13 01:00:00 16.3 28 Norte 37 Norte 0 1020.6 -- 72
2021-01-13 00:00:00 15.7 16 Este 26 Norte 0 1020.9 -- 72
2021-01-12 23:00:00 15.6 24 Norte 35 Norte 0 1021 -- 74
2021-01-12 22:00:00 16 23 Nordeste 32 Nordeste 0 1020.6 -- 73
2021-01-12 21:00:00 15.5 13 Este 30 Este 0 1020.3 -- 75
2021-01-12 20:00:00 15.7 16 Nordeste 30 Nordeste 0 1019.9 -- 71
2021-01-12 19:00:00 15.7 18 Este 33 Este 0 1019.1 -- 74
2021-01-12 18:00:00 16.3 21 Nordeste 41 Nordeste 0 1018.8 -- 73
2021-01-12 17:00:00 18.4 22 Nordeste 35 Norte 0 1018.6 -- 53
2021-01-12 16:00:00 18.1 23 Nordeste 33 Norte 0 1018.5 -- 56
2021-01-12 15:00:00 17.9 20 Nordeste 30 Este 0 1018.6 -- 60
2021-01-12 14:00:00 16 12 Nordeste 30 Nordeste 0 1019.3 -- 79
2021-01-12 13:00:00 14.4 27 Nordeste 46 Nordeste 0.1 1020.4 -- 89
2021-01-12 12:00:00 17 14 Norte 30 Nordeste 0 1020.6 -- 71
2021-01-12 11:00:00 17.7 18 Nordeste 28 Nordeste 0 1021.4 -- 64
2021-01-12 10:00:00 16 14 Nordeste 35 Nordeste 0 1020.7 -- 67
2021-01-12 09:00:00 13.5 14 Norte 30 Este 0.1 1019.9 -- 84
2021-01-12 08:00:00 13.5 19 Nordeste 35 Norte 0 1019.7 -- 89
2021-01-12 07:00:00 14.2 18 Este 26 Este 0 1018.8 -- 83
2021-01-12 06:00:00 14.1 17 Este 26 Este 0.7 1018.3 -- 79
2021-01-12 05:00:00 14.3 18 Este 35 Norte 0.5 1018.3 -- 79
2021-01-12 04:00:00 14.9 14 Nordeste 21 Nordeste 0 1018.8 -- 71
2021-01-12 03:00:00 14.8 15 Nordeste 22 Nordeste 0 1018.9 -- 71
2021-01-12 02:00:00 14.8 16 Nordeste 22 Este 0 1019 -- 70
2021-01-12 01:00:00 15 14 Nordeste 21 Este 0 1019.3 -- 68
2021-01-12 00:00:00 15.1 15 Este 26 Nordeste 0 1019.5 -- 71
2021-01-11 23:00:00 15.4 13 Este 37 Nordeste 0 1019.7 -- 74
2021-01-11 22:00:00 14.6 14 Nordeste 35 Este 0.3 1019.3 -- 82
2021-01-11 21:00:00 14.9 14 Este 42 Este 0.4 1019.1 -- 77
2021-01-11 20:00:00 15.3 17 Este 28 Este 0 1018.2 -- 75
2021-01-11 19:00:00 14.9 16 Este 41 Este 0.1 1017.8 -- 79
2021-01-11 18:00:00 15.7 28 Este 42 Norte 0 1017.3 -- 77
2021-01-11 17:00:00 17.4 34 Norte 45 Norte 0 1017.1 -- 62
2021-01-11 16:00:00 17.6 31 Norte 42 Norte 0 1017.1 -- 60
2021-01-11 15:00:00 17.9 35 Norte 48 Norte 0 1017 -- 61
2021-01-11 14:00:00 17.5 35 Norte 52 Nordeste 0 1017.3 -- 62
2021-01-11 13:00:00 17.2 27 Este 46 Norte 0 1018.2 -- 64
2021-01-11 12:00:00 17.6 27 Este 48 Este 0 1019.1 -- 59
2021-01-11 11:00:00 16.6 31 Este 46 Este 0 1019.1 -- 65
2021-01-11 10:00:00 16.8 22 Este 30 Este 0 1019.1 -- 57
2021-01-11 09:00:00 14.8 21 Este 28 Este 0 1018.2 -- 63
2021-01-11 08:00:00 13.9 18 Este 26 Este 0 1017.9 -- 68
2021-01-11 07:00:00 14 13 Nordeste 24 Este 0 1017.8 -- 67
2021-01-11 06:00:00 14.3 15 Este 22 Este 0 1017.7 -- 67
2021-01-11 05:00:00 14.1 22 Nordeste 35 Norte 0 1017.2 -- 70
2021-01-11 04:00:00 14.4 18 Este 26 Este 0 1017.4 -- 72
2021-01-11 03:00:00 13.6 16 Este 39 Este 0.1 1017.8 -- 83
2021-01-11 02:00:00 13.9 23 Este 41 Nordeste 0.1 1018.1 -- 82
2021-01-11 01:00:00 14 28 Este 42 Este 0.1 1017.8 -- 84
2021-01-11 00:00:00 14.1 22 Este 41 Este 0.3 1017.9 -- 86
2021-01-10 23:00:00 14 35 Este 46 Este 0.1 1018 -- 85
2021-01-10 22:00:00 15.4 30 Este 41 Este 0.3 1017.4 -- 76
2021-01-10 21:00:00 16.6 24 Este 41 Este 0 1017.1 -- 60
2021-01-10 20:00:00 16.5 17 Este 35 Este 0 1016.8 -- 60
2021-01-10 19:00:00 16.8 21 Este 41 Este 0 1016.4 -- 58
2021-01-10 18:00:00 17.3 28 Este 52 Este 0 1015.9 -- 58
2021-01-10 17:00:00 19 24 Este 54 Este 0 1015.9 -- 49
2021-01-10 16:00:00 19.7 35 Este 52 Este 0 1015.8 -- 45
2021-01-10 15:00:00 19.8 36 Este 55 Nordeste 0 1016.1 -- 45
2021-01-10 14:00:00 19.7 39 Este 58 Este 0 1016.2 -- 49
2021-01-10 13:00:00 19.2 35 Este 52 Este 0 1017.2 -- 54
2021-01-10 12:00:00 19.2 31 Este 48 Este 0 1018.3 -- 51
2021-01-10 11:00:00 18.7 33 Este 45 Nordeste 0 1018.6 -- 51
2021-01-10 10:00:00 17 28 Este 45 Este 0 1018.2 -- 63
2021-01-10 09:00:00 15.3 17 Nordeste 30 Nordeste 0 1017.6 -- 72
2021-01-10 08:00:00 14.4 13 Nordeste 26 Nordeste 0 1017.1 -- 71
2021-01-10 07:00:00 14 15 Nordeste 42 Nordeste 0 1016.4 -- 79
2021-01-10 06:00:00 14.5 21 Nordeste 39 Nordeste 0 1016 -- 72
2021-01-10 05:00:00 14.5 13 Este 39 Nordeste 0 1016.3 -- 70
2021-01-10 04:00:00 14.9 15 Nordeste 22 Este 0 1016.4 -- 64
2021-01-10 03:00:00 14 16 Nordeste 26 Nordeste 0 1016.6 -- 71
2021-01-10 02:00:00 13.6 13 Nordeste 37 Este 0 1016.8 -- 81
2021-01-10 01:00:00 14.6 16 Este 24 Nordeste 0 1016.9 -- 70
2021-01-10 00:00:00 14.5 18 Este 30 Este 0 1017.2 -- 72
2021-01-09 23:00:00 14.5 14 Este 22 Este 0 1017.3 -- 64
2021-01-09 22:00:00 14.5 15 Este 30 Este 0 1017.1 -- 62
2021-01-09 21:00:00 14.7 17 Este 28 Este 0 1016.5 -- 68
2021-01-09 20:00:00 14.8 24 Este 35 Este 0 1016 -- 64
2021-01-09 19:00:00 15 26 Este 45 Este 0 1015.4 -- 64
2021-01-09 18:00:00 15.8 24 Este 41 Norte 0 1015.1 -- 61
2021-01-09 17:00:00 15.8 28 Este 52 Norte 0 1014.9 -- 65
2021-01-09 16:00:00 17.3 32 Este 48 Norte 0.1 1014.4 -- 60
2021-01-09 15:00:00 16 34 Este 68 Este 0 1014.3 -- 59
2021-01-09 14:00:00 18.1 39 Este 58 Este 0 1013.8 -- 50
2021-01-09 13:00:00 18.5 36 Este 50 Este 0 1014.4 -- 51
2021-01-09 12:00:00 16.6 31 Este 54 Este 0.1 1014.9 -- 67
2021-01-09 11:00:00 17.3 33 Este 50 Nordeste 0 1015.1 -- 56
2021-01-09 10:00:00 16.4 26 Este 42 Nordeste 0 1014.5 -- 60
2021-01-09 09:00:00 15.2 23 Este 42 Nordeste 0 1013.4 -- 61
2021-01-09 08:00:00 14.5 17 Este 28 Nordeste 0 1012.5 -- 61
2021-01-09 07:00:00 14.2 11 Este 24 Nordeste 0 1012.1 -- 63
2021-01-09 06:00:00 14.5 21 Este 37 Nordeste 0 1011.7 -- 62
2021-01-09 05:00:00 14.7 18 Nordeste 26 Nordeste 0 1011.7 -- 62
2021-01-09 04:00:00 13.8 15 Nordeste 33 Nordeste 0 1011.9 -- 73
2021-01-09 03:00:00 14.2 22 Este 33 Este 0 1011.7 -- 71
2021-01-09 02:00:00 14.1 5 Nordeste 15 Nordeste 0 1011 -- 64
2021-01-09 01:00:00 14.9 12 Nordeste 30 Este 0 1010.9 -- 64
2021-01-09 00:00:00 14.8 17 Este 32 Este 0 1011 -- 72
2021-01-08 23:00:00 14.8 16 Este 37 Norte 0 1011 -- 77
2021-01-08 22:00:00 15.5 23 Nordeste 41 Este 0 1010.7 -- 69
2021-01-08 21:00:00 15 24 Norte 33 Norte 0 1010.1 -- 77
2021-01-08 20:00:00 15.2 28 Norte 45 Este 0 1009.5 -- 75
2021-01-08 19:00:00 16.1 27 Este 37 Este 0 1008.5 -- 69
2021-01-08 18:00:00 16 25 Este 39 Este 0 1007.5 -- 76
2021-01-08 17:00:00 16.7 30 Norte 45 Norte 0 1007.1 -- 74
2021-01-08 16:00:00 16.7 26 Este 35 Norte 0.1 1006.5 -- 77
2021-01-08 15:00:00 16 16 Nordeste 48 Norte 3.5 1005.9 -- 88
2021-01-08 14:00:00 16.4 36 Norte 52 Norte 0.1 1005.9 -- 84
2021-01-08 13:00:00 20.2 27 Este 48 Norte 0 1005.5 -- 57
2021-01-08 12:00:00 20.3 32 Nordeste 54 Norte 0 1006 -- 60
2021-01-08 11:00:00 20.5 28 Este 45 Este 0 1005.4 -- 56
2021-01-08 10:00:00 20.5 19 Este 32 Este 0 1005 -- 59
2021-01-08 09:00:00 17.7 6 Nordeste 21 Norte 0 1003.9 -- 73
2021-01-08 08:00:00 17.4 12 Nordeste 22 Nordeste 0 1002.1 -- 72
2021-01-08 07:00:00 17.7 12 Nordeste 24 Este 0 1000.8 -- 72
2021-01-08 06:00:00 18.8 13 Norte 32 Norte 0 999.6 -- 64
2021-01-08 05:00:00 20.3 26 Sudoeste 54 Sudoeste 0 998.8 -- 54
2021-01-08 04:00:00 20.5 31 Sudoeste 50 Sudoeste 0 998.1 -- 54
2021-01-08 03:00:00 19.7 25 Sudoeste 46 Sudoeste 0 998 -- 68
2021-01-08 02:00:00 20 26 Sudoeste 55 Sudoeste 0 997.8 -- 67
2021-01-08 01:00:00 18.9 35 Sudoeste 61 Sudoeste 0.8 998.1 -- 78
2021-01-08 00:00:00 20.3 42 Sudoeste 72 Sudoeste 0 998.1 -- 72
2021-01-07 23:00:00 19.3 42 Sudoeste 61 Sudoeste 1.6 998.4 -- 87
2021-01-07 22:00:00 19.8 40 Sur 63 Sudoeste 1.6 999.3 -- 91
2021-01-07 21:00:00 21.1 38 Sudoeste 61 Sudoeste 0 998.5 -- 75
2021-01-07 20:00:00 22.2 43 Sudoeste 67 Sudoeste 0 998.5 -- 61
2021-01-07 19:00:00 22.5 41 Sudoeste 68 Sudoeste 0 998.3 -- 60
2021-01-07 18:00:00 22.7 37 Sudoeste 65 Sudoeste 0 998 -- 61
2021-01-07 17:00:00 23 39 Sudoeste 65 Sudoeste 0 998.6 -- 58
2021-01-07 16:00:00 23.4 30 Sudoeste 72 Sudoeste 0 998.8 -- 61
2021-01-07 15:00:00 24.2 32 Oeste 52 Sudoeste 0 998.7 -- 56
2021-01-07 14:00:00 23.8 30 Oeste -- -- 0 998.7 -- 58
2021-01-07 13:00:00 19.6 -- -- -- -- 16.1 999.3 -- 93
2021-01-07 12:00:00 21.2 40 Sudoeste 78 Sudoeste 0.4 1000.4 -- 83
2021-01-07 11:00:00 21.2 50 Sudoeste 74 Sudoeste 0.3 1000.2 -- 85
2021-01-07 10:00:00 20.8 48 Sudoeste 74 Sudoeste 0 1000.3 -- 79
2021-01-07 09:00:00 20.7 44 Sudoeste 76 Sudoeste 0.1 999.8 -- 76
2021-01-07 08:00:00 19.8 40 Sudoeste 59 Sudoeste 0.4 999.4 -- 87
2021-01-07 07:00:00 20.7 35 Sur 58 Sudoeste 0 999.3 -- 71
2021-01-07 06:00:00 20.1 33 Sur 50 Sudoeste 0 999.7 -- 80
2021-01-07 05:00:00 19.7 29 Sur 41 Sur 0 1000.1 -- 89
2021-01-07 04:00:00 19.8 24 Sur 41 Sur 0 1000.4 -- 83
2021-01-07 03:00:00 19.9 32 Sur 42 Sur 0 1000.9 -- 83
2021-01-07 02:00:00 19.9 28 Sur 41 Sur 0 1001.5 -- 84
2021-01-07 01:00:00 19.9 28 Sur 39 Sur 0 1001.2 -- 87
2021-01-07 00:00:00 19.8 27 Sur 35 Sur 0 1001.8 -- 84
2021-01-06 23:00:00 20 23 Sudoeste 37 Sudoeste 0 1001.8 -- 77
2021-01-06 22:00:00 19.8 27 Sudoeste 33 Sudoeste 0 1001.3 -- 76
2021-01-06 21:00:00 20.7 13 Sur 45 Sudoeste 0 1001.5 -- 66
2021-01-06 20:00:00 20.8 24 Sur 37 Sur 0 1000.8 -- 69
2021-01-06 19:00:00 21.5 24 Sur 42 Sur 0 1000.5 -- 67
2021-01-06 18:00:00 23.6 29 Sur 45 Sur 0 999.4 -- 58
2021-01-06 17:00:00 24.4 27 Sur 63 Sur 0 999.2 -- 59
2021-01-06 16:00:00 23.9 27 Sudoeste 50 Sur 0 999.2 -- 59
2021-01-06 15:00:00 21.5 33 Sur 52 Sur 0 998.6 -- 83
2021-01-06 14:00:00 21.6 38 Sur 54 Sur 0.1 999.7 -- 86
2021-01-06 13:00:00 22.6 37 Sur 54 Sur 0 1000.7 -- 78
2021-01-06 12:00:00 22.1 36 Sur 58 Sur 0.1 1001.8 -- 80
2021-01-06 11:00:00 21.4 37 Sur 55 Sur 0.1 1002 -- 86
2021-01-06 10:00:00 20.5 43 Sur 63 Sur 0.2 1002.2 -- 91
2021-01-06 09:00:00 20.1 45 Sur 63 Sur 0.1 1001.7 -- 91
2021-01-06 08:00:00 19.8 37 Sur 58 Sur 0.9 1001.5 -- 94
2021-01-06 07:00:00 19.5 32 Sur 52 Sur 0 1001.3 -- 91
2021-01-06 06:00:00 19.4 31 Sur 48 Sur 0 1001.6 -- 89
2021-01-06 05:00:00 19.5 29 Sur 39 Sur 0 1002 -- 87
2021-01-06 04:00:00 19.4 26 Sur 41 Sudoeste 0 1002.5 -- 86
2021-01-06 03:00:00 19.5 27 Sur 35 Sur 0 1002.7 -- 87
2021-01-06 02:00:00 19.4 21 Sudoeste 32 Sudoeste 0 1003.3 -- 80
2021-01-06 01:00:00 19.3 16 Sur 30 Sudoeste 0 1004.1 -- 83
2021-01-06 00:00:00 19.6 26 Sudoeste 33 Sudoeste 0 1004.4 -- 82
2021-01-05 23:00:00 19 5 Nordeste 11 Norte 0 1005 -- 79
2021-01-05 22:00:00 19.5 8 Norte 13 Sudoeste 0 1005.1 -- 74
2021-01-05 21:00:00 19.3 12 Sur 17 Sur 0 1005.2 -- 85
2021-01-05 20:00:00 19.6 7 Sudoeste 9 Sudoeste 0 1005.4 -- 87
2021-01-05 19:00:00 20.5 5 Este 15 Nordeste 0 1004.9 -- 81
2021-01-05 18:00:00 21.4 11 Nordeste 24 Norte 0 1004.5 -- 77
2021-01-05 17:00:00 22.4 15 Nordeste 24 Nordeste 0 1004.5 -- 65
2021-01-05 16:00:00 23.4 18 Norte 33 Nordeste 0 1003.8 -- 60
2021-01-05 15:00:00 23.9 26 Norte 33 Norte 0 1003.6 -- 56
2021-01-05 14:00:00 23.6 18 Norte 24 Nordeste 0 1004 -- 59
2021-01-05 13:00:00 23.2 12 Nordeste 17 Nordeste 0 1004.8 -- 56
2021-01-05 12:00:00 22.9 9 Este 18 Sudeste 0 1006.3 -- 55
2021-01-05 11:00:00 22.7 9 Sudeste 15 Sudeste 0 1006.8 -- 59
2021-01-05 10:00:00 21.6 5 Este 8 Sudeste 0 1006.9 -- 60
2021-01-05 09:00:00 18.6 6 Nordeste 15 Nordeste 0 1006.2 -- 65
2021-01-05 08:00:00 16.2 4 Norte 11 Norte 0 1005.7 -- 75
2021-01-05 07:00:00 16.4 9 Sudoeste 13 Sudoeste 0 1005.5 -- 68
2021-01-05 06:00:00 16.5 8 Noroeste 15 Sur 0 1005.1 -- 72
2021-01-05 05:00:00 16.4 9 Nordeste 11 Nordeste 0 1004.8 -- 80
2021-01-05 04:00:00 16.9 2 Oeste 11 Norte 0 1005.2 -- 79
2021-01-05 03:00:00 18.6 3 Nordeste 33 Sudoeste 0 1005.7 -- 72
2021-01-05 02:00:00 18.5 10 Nordeste 50 Sudoeste 0 1005.9 -- 88
2021-01-05 01:00:00 18.2 35 Sudoeste 54 Sudoeste 0 1005.2 -- 89
2021-01-05 00:00:00 18.5 38 Sudoeste 55 Sudoeste 0 1005.4 -- 84
2021-01-04 23:00:00 18.7 32 Sudoeste 48 Sudoeste 0 1006 -- 79
2021-01-04 22:00:00 18.2 42 Sudoeste 54 Sudoeste 0 1006.1 -- 83
2021-01-04 21:00:00 18.6 30 Sudoeste 41 Sudoeste 0 1006 -- 76
2021-01-04 20:00:00 18.8 19 Sudoeste 32 Sudoeste 0 1006.3 -- 70
2021-01-04 19:00:00 19 5 Nordeste 42 Sudoeste 0 1006.3 -- 69
2021-01-04 18:00:00 18.5 30 Sudoeste 48 Sudoeste 0 1005.4 -- 75
2021-01-04 17:00:00 18.4 32 Sur 54 Sur 0 1005.6 -- 75
2021-01-04 16:00:00 18.7 43 Sur 52 Sur 0 1005.3 -- 73
2021-01-04 15:00:00 18.9 39 Sur 55 Sur 0 1006 -- 71
2021-01-04 14:00:00 19.1 41 Sur 58 Sudoeste 0 1006.7 -- 69
2021-01-04 13:00:00 19.3 36 Sur 48 Sur 0 1007.8 -- 68
2021-01-04 12:00:00 18.6 34 Sur 45 Sur 0 1008.5 -- 70
2021-01-04 11:00:00 18.3 31 Sur 41 Sur 0 1009.4 -- 71
2021-01-04 10:00:00 17.8 20 Sur 26 Sur 0 1010 -- 74
2021-01-04 09:00:00 17.7 18 Sur 30 Sur 0 1009.3 -- 74
2021-01-04 08:00:00 17.2 15 Sur 22 Sur 0 1008.6 -- 73
2021-01-04 07:00:00 16.7 11 Sudoeste 13 Sudoeste 0 1008.8 -- 74
2021-01-04 06:00:00 16.7 13 Sudoeste 15 Sudoeste 0 1008.9 -- 73
2021-01-04 05:00:00 16.4 11 Sur 13 Sur 0 1009.2 -- 72
2021-01-04 04:00:00 16.5 9 Norte 13 Norte 0 1010.2 -- 72
2021-01-04 03:00:00 16.8 9 Sudoeste 11 Sudoeste 0 1009.8 -- 71
2021-01-04 02:00:00 16.7 10 Sudoeste 13 Sudoeste 0 1010.3 -- 70
2021-01-04 01:00:00 16.3 10 Sudoeste 13 Sudoeste 0 1010.4 -- 70
2021-01-04 00:00:00 16.1 10 Norte 18 Norte 0 1011.5 -- 69
2021-01-03 23:00:00 16.1 8 Norte 15 Norte 0 1011.2 -- 68
2021-01-03 22:00:00 16.2 3 Nordeste 13 Nordeste 0 1011.5 -- 67
2021-01-03 21:00:00 16.9 6 Nordeste 13 Nordeste 0 1011.7 -- 65
2021-01-03 20:00:00 17.7 4 Sur 11 Este 0 1011.5 -- 62
2021-01-03 19:00:00 18 6 Sudeste 13 Este 0 1011 -- 61
2021-01-03 18:00:00 18.2 8 Este 15 Nordeste 0 1010.7 -- 60
2021-01-03 17:00:00 18.5 8 Este 17 Este 0 1010.6 -- 58
2021-01-03 16:00:00 18.9 10 Nordeste 17 Nordeste 0 1010.2 -- 57
2021-01-03 15:00:00 18.7 11 Este 15 Este 0 1010.4 -- 59
2021-01-03 14:00:00 18.5 14 Nordeste 22 Nordeste 0 1011.2 -- 60
2021-01-03 13:00:00 18.8 12 Este 18 Nordeste 0 1011.9 -- 61
2021-01-03 12:00:00 18.8 9 Este 13 Este 0 1012.7 -- 61
2021-01-03 11:00:00 18.5 7 Este 11 Este 0 1013.7 -- 60
2021-01-03 10:00:00 18.2 3 Norte 9 Norte 0 1013.6 -- 62
2021-01-03 09:00:00 17 6 Nordeste 15 Este 0 1012.6 -- 66
2021-01-03 08:00:00 16.6 9 Nordeste 17 Nordeste 0 1012.1 -- 65
2021-01-03 07:00:00 15.9 10 Nordeste 15 Nordeste 0 1011.4 -- 69
2021-01-03 06:00:00 16.2 12 Nordeste 15 Nordeste 0 1011.3 -- 68
2021-01-03 05:00:00 16.8 8 Este 13 Este 0 1010.9 -- 66
2021-01-03 04:00:00 17.4 10 Nordeste 21 Este 0 1011.7 -- 63
2021-01-03 03:00:00 17.3 14 Nordeste 22 Nordeste 0 1011.5 -- 64
2021-01-03 02:00:00 17.7 16 Nordeste 22 Nordeste 0 1011.5 -- 62
2021-01-03 01:00:00 17.3 13 Nordeste 24 Nordeste 0 1012.3 -- 65
2021-01-03 00:00:00 17.2 15 Norte 22 Nordeste 0 1012.7 -- 66
2021-01-02 23:00:00 17.7 17 Nordeste 28 Nordeste 0 1013 -- 65
2021-01-02 22:00:00 17.1 18 Nordeste 24 Nordeste 0 1012.6 -- 63
2021-01-02 21:00:00 17.4 20 Nordeste 28 Nordeste 0 1012.3 -- 59
2021-01-02 20:00:00 18 18 Nordeste 28 Nordeste 0 1012.3 -- 60
2021-01-02 19:00:00 17.9 21 Nordeste 30 Nordeste 0 1012 -- 61
2021-01-02 18:00:00 18.2 19 Nordeste 30 Norte 0 1012 -- 66
2021-01-02 17:00:00 18.4 25 Norte 33 Nordeste 0 1012.4 -- 68
2021-01-02 16:00:00 19.4 23 Norte 33 Nordeste 0 1012.1 -- 50
2021-01-02 15:00:00 19.4 23 Norte 32 Nordeste 0 1012.2 -- 52
2021-01-02 14:00:00 19 22 Nordeste 30 Norte 0 1012.7 -- 53
2021-01-02 13:00:00 19.5 23 Norte 32 Nordeste 0 1013.6 -- 52